createdAt,value
2023-01-10T05:17:41.320Z,100264.91
2023-01-10T05:20:09.861Z,100279.16
2023-01-10T05:22:36.338Z,100282.66
2023-01-10T05:25:02.880Z,100273.78
2023-01-10T05:27:29.400Z,100277.81
2023-01-10T05:29:56.035Z,100274.34
2023-01-10T05:32:22.799Z,100273.47
2023-01-10T05:34:49.379Z,100282.22
2023-01-10T05:37:15.973Z,100282.19
2023-01-10T05:39:43.547Z,100289.28
2023-01-10T05:42:10.120Z,100280.50
2023-01-10T05:44:36.576Z,100293.78
2023-01-10T05:47:03.168Z,100290.06
2023-01-10T05:49:34.361Z,100294.38
2023-01-10T05:52:00.897Z,100293.50
2023-01-10T05:54:29.639Z,100302.44
2023-01-10T05:56:57.096Z,100300.75
2023-01-10T05:59:30.889Z,100298.88
2023-01-10T06:01:57.575Z,100313.72
2023-01-10T06:04:28.156Z,100322.59
2023-01-10T06:06:54.650Z,100323.69
2023-01-10T06:09:21.192Z,100333.13
2023-01-10T06:11:47.734Z,100333.19
2023-01-10T06:14:19.003Z,100347.03
2023-01-10T06:16:46.821Z,100351.25
2023-01-10T06:19:13.559Z,100367.28
2023-01-10T06:21:40.707Z,100371.75
2023-01-10T06:24:07.724Z,100379.34
2023-01-10T06:26:34.564Z,100370.72
2023-01-10T06:29:01.278Z,100371.50
2023-01-10T06:31:54.928Z,100374.19
2023-01-10T06:34:21.537Z,100381.16
2023-01-10T06:36:48.306Z,100384.38
2023-01-10T06:39:14.926Z,100389.25
2023-01-10T06:41:41.440Z,100388.66
2023-01-10T06:44:08.123Z,100395.50
2023-01-10T06:46:44.874Z,100410.28
2023-01-10T06:49:12.317Z,100427.81
2023-01-10T06:51:45.060Z,100433.22
2023-01-10T06:54:23.790Z,100437.50
2023-01-10T06:56:53.001Z,100434.69
2023-01-10T06:59:20.310Z,100427.41
2023-01-10T07:01:50.063Z,100427.53
2023-01-10T07:04:21.153Z,100425.00
2023-01-10T07:06:49.308Z,100420.66
2023-01-10T07:09:16.043Z,100425.91
2023-01-10T07:11:46.507Z,100439.06
2023-01-10T07:14:13.196Z,100443.44
2023-01-10T07:16:56.165Z,100462.56
2023-01-10T07:19:44.443Z,100464.16
2023-01-10T07:23:15.652Z,100471.59
2023-01-10T07:25:53.178Z,100475.31
2023-01-10T07:28:40.028Z,100493.13
2023-01-10T07:31:11.570Z,100490.97
2023-01-10T07:34:03.359Z,100485.03
2023-01-10T07:36:42.914Z,100472.78
2023-01-10T07:39:22.057Z,100478.53
2023-01-10T07:42:19.342Z,100501.75
2023-01-10T07:45:09.156Z,100517.97
2023-01-10T07:48:15.144Z,100520.66
2023-01-10T07:51:32.767Z,100520.56
2023-01-10T07:54:32.844Z,100522.44
2023-01-10T07:57:07.065Z,100539.03
2023-01-10T07:59:50.899Z,100540.03
2023-01-10T08:02:22.924Z,100538.31
2023-01-10T08:05:12.199Z,100532.56
2023-01-10T08:08:07.764Z,100531.56
2023-01-10T08:10:45.294Z,100535.75
2023-01-10T08:13:27.131Z,100542.72
2023-01-10T08:16:29.122Z,100547.09
2023-01-10T08:22:53.853Z,100552.41
2023-01-10T08:25:20.938Z,100554.06
2023-01-10T08:27:56.082Z,100550.66
2023-01-10T08:37:41.981Z,100551.31
2023-01-10T08:44:56.123Z,100557.22
2023-01-10T08:47:41.970Z,100566.72
2023-01-10T08:50:09.179Z,100569.06
2023-01-10T08:52:35.649Z,100573.94
2023-01-10T08:55:02.196Z,100573.69
2023-01-10T08:57:31.170Z,100569.13
2023-01-10T08:59:57.847Z,100583.41
2023-01-10T09:02:24.478Z,100581.25
2023-01-10T09:04:50.992Z,100581.47
2023-01-10T09:07:17.549Z,100597.03
2023-01-10T09:09:44.468Z,100591.56
2023-01-10T09:12:29.797Z,100596.28
2023-01-10T09:14:56.657Z,100594.56
2023-01-10T09:17:23.365Z,100593.94
2023-01-10T09:19:50.171Z,100602.56
2023-01-10T09:22:20.217Z,100603.81
2023-01-10T09:24:46.756Z,100603.38
2023-01-10T09:27:13.260Z,100599.81
2023-01-10T09:29:39.824Z,100607.03
2023-01-10T09:32:07.480Z,100605.94
2023-01-10T09:34:34.228Z,100600.59
2023-01-10T09:37:00.737Z,100606.06
2023-01-10T09:39:29.456Z,100606.75
2023-01-10T09:41:59.143Z,100602.19
2023-01-10T09:45:02.595Z,100604.63
2023-01-10T09:47:39.627Z,100619.63
2023-01-10T09:50:26.167Z,100621.31
2023-01-10T09:53:13.831Z,100620.19
2023-01-10T09:55:42.129Z,100622.41
2023-01-10T09:58:16.604Z,100623.88
2023-01-10T10:00:52.303Z,100622.50
2023-01-10T10:03:56.809Z,100624.63
2023-01-10T10:06:23.904Z,100619.09
2023-01-10T10:08:52.143Z,100618.91
2023-01-10T10:11:27.821Z,100630.03
2023-01-10T10:13:57.284Z,100624.53
2023-01-10T10:16:45.118Z,100626.41
2023-01-10T10:19:40.677Z,100629.19
2023-01-10T10:22:40.541Z,100631.50
2023-01-10T10:25:55.765Z,100627.88
2023-01-10T10:29:04.858Z,100633.94
2023-01-10T10:31:53.282Z,100630.94
2023-01-10T10:34:39.220Z,100626.66
2023-01-10T10:37:15.457Z,100647.13
2023-01-10T10:39:43.115Z,100645.50
2023-01-10T10:42:15.039Z,100634.47
2023-01-10T10:45:05.024Z,100633.63
2023-01-10T10:47:35.383Z,100635.84
2023-01-10T10:50:27.540Z,100624.69
2023-01-10T10:52:54.394Z,100622.34
2023-01-10T10:55:29.233Z,100625.78
2023-01-10T10:58:00.470Z,100624.84
2023-01-10T11:00:29.371Z,100623.13
2023-01-10T11:03:00.292Z,100627.72
2023-01-10T11:05:37.200Z,100617.28
2023-01-10T11:08:13.244Z,100618.38
2023-01-10T11:10:42.687Z,100614.84
2023-01-10T11:13:16.911Z,100625.38
2023-01-10T11:15:46.449Z,100616.81
2023-01-10T11:18:14.973Z,100619.19
2023-01-10T11:20:52.975Z,100621.13
2023-01-10T11:23:26.096Z,100615.88
2023-01-10T11:25:52.983Z,100614.38
2023-01-10T11:28:25.071Z,100624.28
2023-01-10T11:30:59.130Z,100622.25
2023-01-10T11:33:40.178Z,100623.22
2023-01-10T11:36:10.129Z,100633.00
2023-01-10T11:38:36.775Z,100632.13
2023-01-10T11:41:25.038Z,100623.84
2023-01-10T11:43:51.660Z,100614.94
2023-01-10T11:46:21.852Z,100616.38
2023-01-10T11:49:26.510Z,100616.69
2023-01-10T11:51:58.261Z,100610.97
2023-01-10T11:54:29.880Z,100611.97
2023-01-10T11:57:08.730Z,100606.72
2023-01-10T11:59:36.100Z,100603.16
2023-01-10T12:02:22.246Z,100601.63
2023-01-10T12:04:50.881Z,100597.22
2023-01-10T12:07:19.088Z,100590.00
2023-01-10T12:10:02.273Z,100594.69
2023-01-10T12:12:32.570Z,100592.03
2023-01-10T12:15:20.287Z,100591.88
2023-01-10T12:17:47.411Z,100591.03
2023-01-10T12:20:15.732Z,100585.25
2023-01-10T12:24:26.489Z,100569.13
2023-01-10T12:44:01.831Z,100581.72
2023-01-10T12:47:05.676Z,100578.81
2023-01-10T12:49:45.745Z,100586.75
2023-01-10T12:52:33.556Z,100584.50
2023-01-10T12:55:18.125Z,100584.78
2023-01-10T12:57:51.861Z,100587.13
2023-01-10T13:00:47.846Z,100587.25
2023-01-10T13:03:21.884Z,100587.13
2023-01-10T13:05:57.969Z,100599.06
2023-01-10T13:08:32.320Z,100593.63
2023-01-10T13:11:01.203Z,100604.41
2023-01-10T13:13:39.035Z,100594.06
2023-01-10T13:16:24.465Z,100593.00
2023-01-10T13:19:23.603Z,100594.59
2023-01-10T13:22:00.597Z,100592.78
2023-01-10T13:24:30.554Z,100593.81
2023-01-10T13:27:51.113Z,100590.78
2023-01-10T13:30:40.860Z,100600.03
2023-01-10T13:33:41.338Z,100595.44
2023-01-10T13:36:23.776Z,100597.13
2023-01-10T13:38:52.344Z,100598.75
2023-01-10T13:42:10.035Z,100602.25
2023-01-10T13:47:52.558Z,100591.56
2023-01-10T13:50:23.156Z,100594.47
2023-01-10T13:53:34.725Z,100590.63
2023-01-10T13:56:01.667Z,100590.75
2023-01-10T13:59:00.858Z,100586.44
2023-01-10T14:01:56.379Z,100580.00
2023-01-10T14:04:47.762Z,100579.84
2023-01-10T14:07:36.142Z,100577.75
2023-01-10T14:10:09.423Z,100570.00
2023-01-10T14:12:54.824Z,100567.69
2023-01-10T14:15:30.173Z,100557.13
2023-01-10T14:17:58.641Z,100561.81
2023-01-10T14:20:25.867Z,100562.56
2023-01-10T14:27:08.799Z,100549.44
2023-01-10T14:29:49.144Z,100549.25
2023-01-10T14:32:30.453Z,100541.22
2023-01-10T14:45:21.054Z,100540.44
2023-01-10T14:47:56.646Z,100541.53
2023-01-10T14:50:31.163Z,100533.28
2023-01-10T14:53:02.124Z,100536.34
2023-01-10T14:55:29.540Z,100526.34
2023-01-10T14:58:25.542Z,100531.56
2023-01-10T15:01:19.767Z,100521.50
2023-01-10T15:03:47.368Z,100525.63
2023-01-10T15:06:50.677Z,100524.81
2023-01-10T15:10:39.820Z,100520.41
2023-01-10T15:13:39.557Z,100511.25
2023-01-10T15:20:37.680Z,100509.56
2023-01-10T15:43:20.573Z,100495.75
2023-01-10T15:45:51.025Z,100493.16
2023-01-10T15:48:34.598Z,100486.13
2023-01-10T15:51:14.942Z,100482.75
2023-01-10T15:53:53.032Z,100481.28
2023-01-10T15:56:24.162Z,100482.28
2023-01-10T15:58:50.718Z,100486.50
2023-01-10T16:01:17.768Z,100475.47
2023-01-10T16:03:48.668Z,100476.22
2023-01-10T16:06:25.623Z,100472.19
2023-01-10T16:08:58.584Z,100476.34
2023-01-10T16:12:12.202Z,100472.94
2023-01-10T16:14:38.719Z,100472.50
2023-01-10T16:17:06.105Z,100467.69
2023-01-10T16:19:33.072Z,100462.66
2023-01-10T16:22:02.031Z,100464.03
2023-01-10T16:24:32.796Z,100463.63
2023-01-10T16:27:03.200Z,100462.44
2023-01-10T16:29:29.965Z,100457.28
2023-01-10T16:31:59.317Z,100450.31
2023-01-10T16:34:28.778Z,100460.63
2023-01-10T16:36:55.681Z,100452.00
2023-01-10T16:39:23.718Z,100457.22
2023-01-10T16:45:05.965Z,100436.81
2023-01-10T16:47:32.874Z,100444.72
2023-01-10T16:49:59.709Z,100441.38
2023-01-10T16:52:26.317Z,100448.44
2023-01-10T16:54:53.268Z,100431.50
2023-01-10T16:57:20.078Z,100434.94
2023-01-10T16:59:46.629Z,100433.81
2023-01-10T17:02:18.059Z,100426.03
2023-01-10T17:04:45.004Z,100421.84
2023-01-10T17:07:13.001Z,100416.78
2023-01-10T17:09:39.694Z,100421.72
2023-01-10T17:12:10.783Z,100413.00
2023-01-10T17:14:38.680Z,100412.38
2023-01-10T17:17:05.478Z,100407.78
2023-01-10T17:19:37.141Z,100401.56
2023-01-10T17:22:03.659Z,100405.66
2023-01-10T17:24:33.190Z,100401.69
2023-01-10T17:26:59.777Z,100384.97
2023-01-10T17:29:26.335Z,100378.28
2023-01-10T17:32:22.103Z,100368.31
2023-01-10T17:34:48.660Z,100369.97
2023-01-10T17:37:16.307Z,100364.69
2023-01-10T17:39:44.805Z,100367.25
2023-01-10T17:42:12.516Z,100370.06
2023-01-10T17:44:38.998Z,100366.72
2023-01-10T17:47:06.432Z,100380.81
2023-01-10T17:49:33.042Z,100370.63
2023-01-10T17:51:59.529Z,100360.72
2023-01-10T17:54:26.583Z,100349.41
2023-01-10T17:56:53.261Z,100357.06
2023-01-10T17:59:20.397Z,100345.31
2023-01-10T18:01:47.273Z,100350.09
2023-01-10T18:04:14.006Z,100350.72
2023-01-10T18:06:40.605Z,100349.00
2023-01-10T18:09:07.429Z,100340.34
2023-01-10T18:11:34.024Z,100348.06
2023-01-10T18:14:20.630Z,100338.75
2023-01-10T18:16:47.367Z,100356.66
2023-01-10T18:19:14.096Z,100367.16
2023-01-10T18:21:40.696Z,100368.56
2023-01-10T18:24:07.539Z,100364.69
2023-01-10T18:26:34.209Z,100369.34
2023-01-10T18:29:00.800Z,100364.84
2023-01-10T18:31:29.461Z,100367.66
2023-01-10T18:33:57.079Z,100369.28
2023-01-10T18:36:27.638Z,100359.78
2023-01-10T18:38:54.187Z,100362.59
2023-01-10T18:41:25.265Z,100364.84
2023-01-10T18:43:51.843Z,100361.00
2023-01-10T18:46:21.251Z,100364.44
2023-01-10T18:48:50.152Z,100356.75
2023-01-10T18:51:18.945Z,100361.91
2023-01-10T18:53:45.884Z,100361.16
2023-01-10T18:56:12.696Z,100353.63
2023-01-10T18:58:41.595Z,100355.84
2023-01-10T19:01:10.642Z,100360.97
2023-01-10T19:03:37.692Z,100370.25
2023-01-10T19:06:05.940Z,100366.94
2023-01-10T19:08:33.736Z,100372.25
2023-01-10T19:11:16.488Z,100369.56
2023-01-10T19:13:47.775Z,100370.66
2023-01-10T19:16:16.704Z,100371.97
2023-01-10T19:18:53.660Z,100356.81
2023-01-10T19:21:21.488Z,100363.50
2023-01-10T19:23:53.842Z,100360.50
2023-01-10T19:26:21.382Z,100354.84
2023-01-10T19:28:48.431Z,100351.22
2023-01-10T19:31:25.653Z,100356.34
2023-01-10T19:33:53.987Z,100359.03
2023-01-10T19:36:24.657Z,100346.34
2023-01-10T19:38:58.885Z,100344.78
2023-01-10T19:41:27.078Z,100344.78
2023-01-10T19:43:58.724Z,100344.13
2023-01-10T19:46:39.096Z,100341.44
2023-01-10T19:49:10.614Z,100336.28
2023-01-10T19:51:39.623Z,100334.09
2023-01-10T19:54:08.415Z,100338.97
2023-01-10T19:56:35.803Z,100343.97
2023-01-10T19:59:04.751Z,100338.81
2023-01-10T20:01:32.008Z,100333.22
2023-01-10T20:04:01.692Z,100334.72
2023-01-10T20:06:30.974Z,100328.09
2023-01-10T20:08:58.605Z,100327.84
2023-01-10T20:11:37.679Z,100328.78
2023-01-10T20:14:06.230Z,100320.38
2023-01-10T20:16:33.323Z,100317.22
2023-01-10T20:18:59.974Z,100312.44
2023-01-10T20:21:26.635Z,100297.53
2023-01-10T20:23:53.222Z,100291.78
2023-01-10T20:26:22.982Z,100298.09
2023-01-10T20:29:05.292Z,100288.56
2023-01-10T20:31:32.396Z,100294.38
2023-01-10T20:33:59.377Z,100286.63
2023-01-10T20:36:27.253Z,100278.69
2023-01-10T20:38:53.854Z,100274.69
2023-01-10T20:41:21.964Z,100279.22
2023-01-10T20:43:48.986Z,100271.81
2023-01-10T20:46:19.565Z,100280.56
2023-01-10T20:48:47.800Z,100275.00
2023-01-10T20:51:20.651Z,100272.38
2023-01-10T20:53:49.145Z,100274.53
2023-01-10T20:56:18.048Z,100265.34
2023-01-10T20:58:44.945Z,100271.88
2023-01-10T21:01:24.834Z,100274.00
2023-01-10T21:03:56.408Z,100272.66
2023-01-10T21:06:23.290Z,100270.72
2023-01-10T21:08:50.912Z,100272.38
2023-01-10T21:11:19.313Z,100258.91
2023-01-10T21:13:46.108Z,100265.31
2023-01-10T21:16:19.394Z,100257.81
2023-01-10T21:18:46.699Z,100249.53
2023-01-10T21:21:15.996Z,100243.91
2023-01-10T21:23:43.004Z,100244.41
2023-01-10T21:26:14.589Z,100242.97
2023-01-10T21:28:45.887Z,100237.56
2023-01-10T21:31:20.844Z,100234.75
2023-01-10T21:33:49.008Z,100235.75
2023-01-10T21:36:15.548Z,100239.09
2023-01-10T21:38:44.980Z,100237.00
2023-01-10T21:41:40.043Z,100233.16
2023-01-10T21:44:09.544Z,100230.09
2023-01-10T21:46:36.782Z,100225.63
2023-01-10T21:49:04.134Z,100223.69
2023-01-10T21:51:30.591Z,100213.28
2023-01-10T21:53:57.671Z,100213.66
2023-01-10T21:56:24.212Z,100220.50
2023-01-10T21:58:50.777Z,100213.66
2023-01-10T22:01:17.369Z,100212.59
2023-01-10T22:03:46.920Z,100216.03
2023-01-10T22:06:13.635Z,100214.69
2023-01-10T22:08:40.465Z,100207.97
2023-01-10T22:11:08.135Z,100204.72
2023-01-10T22:13:36.363Z,100201.81
2023-01-10T22:16:03.332Z,100200.34
2023-01-10T22:18:31.259Z,100197.59
2023-01-10T22:20:58.646Z,100195.19
2023-01-10T22:23:25.255Z,100197.69
2023-01-10T22:26:03.535Z,100198.00
2023-01-10T22:28:30.474Z,100197.63
2023-01-10T22:30:57.180Z,100186.31
2023-01-10T22:33:24.331Z,100187.84
2023-01-10T22:35:50.805Z,100177.84
2023-01-10T22:38:17.292Z,100176.06
2023-01-10T22:40:43.770Z,100177.69
2023-01-10T22:43:10.445Z,100184.31
2023-01-10T22:45:40.733Z,100173.19
2023-01-10T22:48:07.278Z,100182.31
2023-01-10T22:50:33.790Z,100192.28
2023-01-10T22:53:00.284Z,100177.09
2023-01-10T22:55:26.854Z,100184.44
2023-01-10T22:57:53.439Z,100163.03
